Time;durP1;ratioP1;P1;durP2;ratioP2;P2;SDS_P1;SDS_P2;PMS_P1;PMS_P2;Temp;Humidity;BMP_temperature;BMP_pressure;BME280_temperature;BME280_humidity;BME280_pressure;Samples;Min_cycle;Max_cycle;Signal;HPM_P1;HPM_P2
2023/07/01 00:00:04;;;;;;;5.53;2.37;;;;;;;;;;5046256;28;20569;-54
2023/07/01 00:02:30;;;;;;;3.40;2.20;;;;;;;;;;5053244;28;20198;-53
2023/07/01 00:04:56;;;;;;;2.67;2.00;;;;;;;;;;5069707;28;20231;-52
2023/07/01 00:07:23;;;;;;;3.27;2.20;;;;;;;;;;5061646;28;20305;-53
2023/07/01 00:09:49;;;;;;;2.83;2.10;;;;;;;;;;5050137;28;20215;-53
2023/07/01 00:12:15;;;;;;;5.13;1.87;;;;;;;;;;5049732;28;20232;-54
2023/07/01 00:14:41;;;;;;;3.00;1.73;;;;;;;;;;5049963;28;20239;-52
2023/07/01 00:17:11;;;;;;;2.60;1.90;;;;;;;;;;5049712;28;20287;-53
2023/07/01 00:19:37;;;;;;;4.43;2.10;;;;;;;;;;5049795;28;20228;-52
2023/07/01 00:22:04;;;;;;;3.43;2.07;;;;;;;;;;5049964;28;20246;-53
2023/07/01 00:24:31;;;;;;;3.73;1.90;;;;;;;;;;5047787;28;20243;-53
2023/07/01 00:26:57;;;;;;;3.93;2.10;;;;;;;;;;5047898;28;20228;-54
2023/07/01 00:29:23;;;;;;;2.30;1.90;;;;;;;;;;5052438;28;20215;-53
2023/07/01 00:31:49;;;;;;;3.73;1.90;;;;;;;;;;5053522;28;20224;-53
2023/07/01 00:34:15;;;;;;;2.13;2.00;;;;;;;;;;5053498;28;20287;-51
2023/07/01 00:36:41;;;;;;;2.13;1.90;;;;;;;;;;5053594;28;20208;-52
2023/07/01 00:39:07;;;;;;;3.43;2.20;;;;;;;;;;5053352;28;20265;-52
2023/07/01 00:41:37;;;;;;;2.20;1.77;;;;;;;;;;5053342;28;20203;-52
2023/07/01 00:44:03;;;;;;;1.80;1.60;;;;;;;;;;5053436;28;20200;-51
2023/07/01 00:46:31;;;;;;;2.83;2.03;;;;;;;;;;5053226;28;21266;-51
2023/07/01 00:48:57;;;;;;;2.67;1.93;;;;;;;;;;5053276;28;20249;-54
2023/07/01 00:51:23;;;;;;;3.83;2.37;;;;;;;;;;5053197;28;20205;-55
2023/07/01 00:53:49;;;;;;;2.97;1.90;;;;;;;;;;5053067;28;20228;-54
2023/07/01 00:56:15;;;;;;;3.50;2.00;;;;;;;;;;5053259;28;20655;-54
2023/07/01 00:58:42;;;;;;;3.23;1.97;;;;;;;;;;5052853;28;20626;-55
2023/07/01 01:01:10;;;;;;;3.47;1.70;;;;;;;;;;5053186;28;20204;-54
2023/07/01 01:03:39;;;;;;;6.27;2.50;;;;;;;;;;5052973;28;20196;-54
2023/07/01 01:06:07;;;;;;;3.30;2.20;;;;;;;;;;5052724;28;20209;-54
2023/07/01 01:08:36;;;;;;;2.30;1.83;;;;;;;;;;5052954;28;20207;-54
2023/07/01 01:11:02;;;;;;;2.73;1.90;;;;;;;;;;5052877;28;20196;-54
2023/07/01 01:13:29;;;;;;;3.07;2.13;;;;;;;;;;5052608;28;20224;-54
2023/07/01 01:15:57;;;;;;;3.67;2.10;;;;;;;;;;5052752;28;20204;-55
2023/07/01 01:18:24;;;;;;;2.40;2.13;;;;;;;;;;5052845;28;20200;-54
2023/07/01 01:20:50;;;;;;;2.17;1.97;;;;;;;;;;5052866;28;20275;-54
2023/07/01 01:23:22;;;;;;;3.77;2.20;;;;;;;;;;5052643;28;20208;-55
2023/07/01 01:25:51;;;;;;;3.40;2.00;;;;;;;;;;5052637;28;20200;-55
2023/07/01 01:28:19;;;;;;;5.17;2.70;;;;;;;;;;5052549;28;20201;-55
2023/07/01 01:30:46;;;;;;;3.87;1.93;;;;;;;;;;5052496;28;20216;-54
2023/07/01 01:33:11;;;;;;;3.73;2.30;;;;;;;;;;5052382;28;20230;-54
2023/07/01 01:35:37;;;;;;;4.30;2.07;;;;;;;;;;5052368;28;20700;-55
2023/07/01 01:38:05;;;;;;;2.90;1.77;;;;;;;;;;5052354;28;20232;-54
2023/07/01 01:40:34;;;;;;;3.20;2.17;;;;;;;;;;5051757;28;20204;-55
2023/07/01 01:43:01;;;;;;;2.93;2.00;;;;;;;;;;5052266;28;20193;-55
2023/07/01 01:45:28;;;;;;;3.43;1.97;;;;;;;;;;5051864;28;20667;-54
2023/07/01 01:47:54;;;;;;;3.40;2.20;;;;;;;;;;5052206;28;20247;-55
2023/07/01 01:50:22;;;;;;;5.87;2.10;;;;;;;;;;5051966;28;20605;-54
2023/07/01 01:52:49;;;;;;;3.13;2.23;;;;;;;;;;5052051;28;20224;-54
2023/07/01 01:55:17;;;;;;;2.60;1.97;;;;;;;;;;5052003;28;20948;-55
2023/07/01 01:57:43;;;;;;;3.30;2.30;;;;;;;;;;5052130;28;20294;-54
2023/07/01 02:00:13;;;;;;;4.63;2.00;;;;;;;;;;5051801;28;20200;-54
2023/07/01 02:02:40;;;;;;;2.87;2.13;;;;;;;;;;5051897;28;20586;-54
2023/07/01 02:05:06;;;;;;;4.00;2.10;;;;;;;;;;5051768;28;20247;-55
2023/07/01 02:07:32;;;;;;;5.33;2.47;;;;;;;;;;5051798;28;20232;-54
2023/07/01 02:09:58;;;;;;;6.07;2.23;;;;;;;;;;5051903;28;20250;-55
2023/07/01 02:12:26;;;;;;;4.17;2.03;;;;;;;;;;5051625;28;20228;-54
2023/07/01 02:14:52;;;;;;;3.87;2.23;;;;;;;;;;5051706;28;20338;-54
2023/07/01 02:17:18;;;;;;;3.07;2.37;;;;;;;;;;5051734;28;20209;-54
2023/07/01 02:19:45;;;;;;;4.93;2.13;;;;;;;;;;5051543;28;20738;-54
2023/07/01 02:22:11;;;;;;;3.00;2.17;;;;;;;;;;5051460;28;20200;-55
2023/07/01 02:24:37;;;;;;;3.83;2.20;;;;;;;;;;5051490;28;20191;-54
2023/07/01 02:27:03;;;;;;;7.13;2.40;;;;;;;;;;5051282;28;20290;-54
2023/07/01 02:29:29;;;;;;;4.63;2.00;;;;;;;;;;5051424;28;20548;-54
2023/07/01 02:31:55;;;;;;;4.70;2.33;;;;;;;;;;5051247;28;20195;-54
2023/07/01 02:34:25;;;;;;;2.83;2.20;;;;;;;;;;5051112;28;20196;-54
2023/07/01 02:36:52;;;;;;;4.30;2.20;;;;;;;;;;5051406;28;20259;-54
2023/07/01 02:39:18;;;;;;;4.30;2.10;;;;;;;;;;5051184;28;20211;-55
2023/07/01 02:41:44;;;;;;;2.43;2.10;;;;;;;;;;5051048;28;20204;-54
2023/07/01 02:44:13;;;;;;;7.50;2.67;;;;;;;;;;5051162;28;21111;-55
2023/07/01 02:46:39;;;;;;;3.40;2.30;;;;;;;;;;5050889;28;20712;-54
2023/07/01 02:49:05;;;;;;;2.50;2.20;;;;;;;;;;5051147;28;20196;-54
2023/07/01 02:51:31;;;;;;;4.00;2.20;;;;;;;;;;5050112;28;20228;-54
2023/07/01 02:53:58;;;;;;;2.97;2.13;;;;;;;;;;5050757;28;20228;-54
2023/07/01 02:56:24;;;;;;;5.20;2.33;;;;;;;;;;5050816;28;20671;-55
2023/07/01 02:58:50;;;;;;;2.53;2.10;;;;;;;;;;5049676;28;20195;-55
2023/07/01 03:01:16;;;;;;;2.97;2.20;;;;;;;;;;5050660;28;20263;-54
2023/07/01 03:03:42;;;;;;;2.47;2.07;;;;;;;;;;5050801;28;20210;-55
2023/07/01 03:06:11;;;;;;;4.53;2.30;;;;;;;;;;5050866;28;20299;-54
2023/07/01 03:08:37;;;;;;;2.70;2.17;;;;;;;;;;5050469;28;20201;-54
2023/07/01 03:11:04;;;;;;;4.70;2.30;;;;;;;;;;5049724;28;20200;-55
2023/07/01 03:13:30;;;;;;;6.13;2.37;;;;;;;;;;5050630;28;20593;-54
2023/07/01 03:15:56;;;;;;;5.43;2.50;;;;;;;;;;5050281;28;20621;-54
2023/07/01 03:18:22;;;;;;;2.40;2.20;;;;;;;;;;5050439;28;20188;-54
2023/07/01 03:20:49;;;;;;;4.20;2.13;;;;;;;;;;5050534;28;20233;-54
2023/07/01 03:23:16;;;;;;;3.93;2.40;;;;;;;;;;5050184;28;20683;-54
2023/07/01 03:25:42;;;;;;;4.50;2.30;;;;;;;;;;5050286;28;20287;-54
2023/07/01 03:28:09;;;;;;;3.70;2.17;;;;;;;;;;5049064;28;20288;-55
2023/07/01 03:30:35;;;;;;;3.87;2.27;;;;;;;;;;5050149;28;20201;-54
2023/07/01 03:33:01;;;;;;;4.73;2.60;;;;;;;;;;5050247;28;20285;-54
2023/07/01 03:35:27;;;;;;;4.23;2.70;;;;;;;;;;5050347;28;20204;-54
2023/07/01 03:37:53;;;;;;;2.40;2.20;;;;;;;;;;5050409;28;20196;-54
2023/07/01 03:40:20;;;;;;;2.57;2.33;;;;;;;;;;5050174;28;20200;-55
2023/07/01 03:42:46;;;;;;;6.13;2.50;;;;;;;;;;5050287;28;20196;-54
2023/07/01 03:45:13;;;;;;;2.40;2.00;;;;;;;;;;5050298;28;20196;-55
2023/07/01 03:47:43;;;;;;;5.00;2.73;;;;;;;;;;5050372;28;20652;-55
2023/07/01 03:50:09;;;;;;;3.83;2.40;;;;;;;;;;5050113;28;20242;-55
2023/07/01 03:52:39;;;;;;;3.00;2.37;;;;;;;;;;5049975;28;20227;-54
2023/07/01 03:55:06;;;;;;;3.80;2.50;;;;;;;;;;5050255;28;20204;-54
2023/07/01 03:57:32;;;;;;;6.33;2.33;;;;;;;;;;5050175;28;20222;-54
2023/07/01 03:59:58;;;;;;;4.67;2.70;;;;;;;;;;5050138;28;20184;-55
2023/07/01 04:02:25;;;;;;;3.40;2.30;;;;;;;;;;5051253;28;20573;-54
2023/07/01 04:04:51;;;;;;;2.27;2.00;;;;;;;;;;5054082;28;20694;-54
2023/07/01 04:07:21;;;;;;;4.70;2.27;;;;;;;;;;5054232;28;20249;-54
2023/07/01 04:09:48;;;;;;;3.33;2.13;;;;;;;;;;5054154;28;20204;-54
2023/07/01 04:12:14;;;;;;;3.07;2.47;;;;;;;;;;5053740;28;20228;-55
2023/07/01 04:14:40;;;;;;;3.90;1.93;;;;;;;;;;5053990;28;20196;-55
2023/07/01 04:17:06;;;;;;;2.77;2.33;;;;;;;;;;5053775;28;20206;-54
2023/07/01 04:19:33;;;;;;;4.07;2.30;;;;;;;;;;5053873;28;20204;-55
2023/07/01 04:22:00;;;;;;;2.60;2.20;;;;;;;;;;5053853;28;20670;-55
2023/07/01 04:24:26;;;;;;;4.17;2.37;;;;;;;;;;5053527;28;20841;-55
2023/07/01 04:26:52;;;;;;;4.00;2.40;;;;;;;;;;5053650;28;20311;-55
2023/07/01 04:29:18;;;;;;;2.87;2.10;;;;;;;;;;5053770;28;20192;-55
2023/07/01 04:31:44;;;;;;;4.47;2.17;;;;;;;;;;5053584;28;20199;-54
2023/07/01 04:34:10;;;;;;;2.93;2.13;;;;;;;;;;5053391;28;20270;-54
2023/07/01 04:36:37;;;;;;;2.40;2.20;;;;;;;;;;5053554;28;20283;-54
2023/07/01 04:39:03;;;;;;;2.93;1.93;;;;;;;;;;5053636;28;20200;-55
2023/07/01 04:41:32;;;;;;;2.47;2.10;;;;;;;;;;5053355;28;20632;-54
2023/07/01 04:43:58;;;;;;;2.77;2.30;;;;;;;;;;5053368;28;20184;-55
2023/07/01 04:46:24;;;;;;;4.40;2.00;;;;;;;;;;5053260;28;20188;-54
2023/07/01 04:48:53;;;;;;;3.53;2.13;;;;;;;;;;5053160;28;20207;-55
2023/07/01 04:51:19;;;;;;;4.20;2.33;;;;;;;;;;5053066;28;20196;-55
2023/07/01 04:53:46;;;;;;;3.10;2.50;;;;;;;;;;5053085;28;20289;-54
2023/07/01 04:56:14;;;;;;;3.07;2.03;;;;;;;;;;5052989;28;20201;-55
2023/07/01 04:58:41;;;;;;;3.37;2.20;;;;;;;;;;5053007;28;20193;-54
2023/07/01 05:01:07;;;;;;;3.03;2.10;;;;;;;;;;5052896;28;20199;-55
2023/07/01 05:03:33;;;;;;;2.83;1.90;;;;;;;;;;5052853;28;20202;-55
2023/07/01 05:05:59;;;;;;;4.13;2.03;;;;;;;;;;5052921;28;20228;-54
2023/07/01 05:08:25;;;;;;;4.30;2.03;;;;;;;;;;5052928;28;20204;-55
2023/07/01 05:10:52;;;;;;;2.57;2.03;;;;;;;;;;5052738;28;20192;-54
2023/07/01 05:13:18;;;;;;;3.97;2.07;;;;;;;;;;5052294;28;20228;-55
2023/07/01 05:15:44;;;;;;;4.50;2.23;;;;;;;;;;5067997;28;20211;-55
2023/07/01 05:18:10;;;;;;;4.03;2.30;;;;;;;;;;5072682;28;20200;-55
2023/07/01 05:20:36;;;;;;;4.30;2.00;;;;;;;;;;5072581;28;20199;-55
2023/07/01 05:23:02;;;;;;;4.10;2.07;;;;;;;;;;5072449;28;20250;-55
2023/07/01 05:25:28;;;;;;;3.30;2.00;;;;;;;;;;5072589;28;20206;-55
2023/07/01 05:27:55;;;;;;;3.83;2.10;;;;;;;;;;5072266;28;20243;-54
2023/07/01 05:30:21;;;;;;;5.03;2.20;;;;;;;;;;5072369;28;20226;-54
2023/07/01 05:32:47;;;;;;;2.73;1.63;;;;;;;;;;5072205;28;20334;-55
2023/07/01 05:35:13;;;;;;;2.40;1.90;;;;;;;;;;5072493;28;20195;-53
2023/07/01 05:37:39;;;;;;;5.63;2.37;;;;;;;;;;5072484;28;20199;-53
2023/07/01 05:40:06;;;;;;;2.97;1.90;;;;;;;;;;5072134;28;20604;-53
2023/07/01 05:42:32;;;;;;;2.97;1.90;;;;;;;;;;5072082;28;20195;-53
2023/07/01 05:44:59;;;;;;;2.10;1.90;;;;;;;;;;5072249;28;20689;-54
2023/07/01 05:47:25;;;;;;;2.83;1.97;;;;;;;;;;5072003;28;20195;-53
2023/07/01 05:49:51;;;;;;;3.93;1.93;;;;;;;;;;5072252;28;20206;-53
2023/07/01 05:52:17;;;;;;;3.87;2.07;;;;;;;;;;5072117;28;20226;-53
2023/07/01 05:54:43;;;;;;;6.30;2.30;;;;;;;;;;5071956;28;20208;-53
2023/07/01 05:57:09;;;;;;;4.73;2.07;;;;;;;;;;5071933;28;20200;-54
2023/07/01 05:59:35;;;;;;;2.87;2.00;;;;;;;;;;5071858;28;20286;-54
2023/07/01 06:02:03;;;;;;;3.13;2.03;;;;;;;;;;5072027;28;20540;-54
2023/07/01 06:04:29;;;;;;;5.40;1.97;;;;;;;;;;5071716;28;20227;-53
2023/07/01 06:06:55;;;;;;;2.23;1.80;;;;;;;;;;5071815;28;20195;-54
2023/07/01 06:09:21;;;;;;;4.00;2.10;;;;;;;;;;5071739;28;20205;-55
2023/07/01 06:11:47;;;;;;;3.43;2.03;;;;;;;;;;5071476;28;20282;-54
2023/07/01 06:14:13;;;;;;;2.63;1.93;;;;;;;;;;5071448;28;20223;-54
2023/07/01 06:16:39;;;;;;;3.37;1.87;;;;;;;;;;5071237;28;20293;-54
2023/07/01 06:19:06;;;;;;;2.33;1.70;;;;;;;;;;5071538;28;20229;-54
2023/07/01 06:21:32;;;;;;;2.10;1.80;;;;;;;;;;5071113;28;20352;-54
2023/07/01 06:23:58;;;;;;;2.80;1.80;;;;;;;;;;5071222;28;20196;-55
2023/07/01 06:26:24;;;;;;;3.10;1.80;;;;;;;;;;5070596;28;20293;-55
2023/07/01 06:28:50;;;;;;;3.20;2.00;;;;;;;;;;5070925;28;20220;-55
2023/07/01 06:31:16;;;;;;;3.70;1.97;;;;;;;;;;5069537;28;20302;-55
2023/07/01 06:33:43;;;;;;;5.70;1.93;;;;;;;;;;5070964;28;20227;-54
2023/07/01 06:36:12;;;;;;;2.33;1.80;;;;;;;;;;5070910;28;20220;-55
2023/07/01 06:38:40;;;;;;;4.10;2.20;;;;;;;;;;5070793;28;20204;-54
2023/07/01 06:41:06;;;;;;;3.47;1.90;;;;;;;;;;5070618;28;20201;-55
2023/07/01 06:43:32;;;;;;;2.27;1.90;;;;;;;;;;5070670;28;20196;-54
2023/07/01 06:45:59;;;;;;;2.90;2.10;;;;;;;;;;5070576;28;20462;-54
2023/07/01 06:48:25;;;;;;;6.77;2.07;;;;;;;;;;5070383;28;20218;-54
2023/07/01 06:50:51;;;;;;;4.73;2.30;;;;;;;;;;5070553;28;20210;-55
2023/07/01 06:53:18;;;;;;;5.23;2.00;;;;;;;;;;5070514;28;20536;-54
2023/07/01 06:55:44;;;;;;;4.53;1.90;;;;;;;;;;5070449;28;20208;-54
2023/07/01 06:58:11;;;;;;;3.37;2.17;;;;;;;;;;5070341;28;20227;-54
2023/07/01 07:00:37;;;;;;;6.73;2.30;;;;;;;;;;5070458;28;20246;-55
2023/07/01 07:03:03;;;;;;;4.07;2.10;;;;;;;;;;5070594;28;20198;-56
2023/07/01 07:05:29;;;;;;;3.67;2.30;;;;;;;;;;5070228;28;20223;-56
2023/07/01 07:07:55;;;;;;;4.17;2.20;;;;;;;;;;5070252;28;20186;-55
2023/07/01 07:10:23;;;;;;;4.60;2.47;;;;;;;;;;5070262;28;20290;-55
2023/07/01 07:12:49;;;;;;;5.13;2.40;;;;;;;;;;5070129;28;20596;-55
2023/07/01 07:15:15;;;;;;;4.37;2.60;;;;;;;;;;5070353;28;20197;-55
2023/07/01 07:17:41;;;;;;;4.50;2.10;;;;;;;;;;5070225;28;20193;-55
2023/07/01 07:20:08;;;;;;;5.03;2.63;;;;;;;;;;5070418;28;20282;-56
2023/07/01 07:22:34;;;;;;;5.20;2.40;;;;;;;;;;5070241;28;20279;-56
2023/07/01 07:25:00;;;;;;;5.97;2.43;;;;;;;;;;5070238;28;20297;-55
2023/07/01 07:27:27;;;;;;;2.60;1.93;;;;;;;;;;5069895;28;20257;-57
2023/07/01 07:29:53;;;;;;;7.37;2.43;;;;;;;;;;5069750;28;20682;-54
2023/07/01 07:32:19;;;;;;;3.80;2.20;;;;;;;;;;5070120;28;20199;-54
2023/07/01 07:34:45;;;;;;;2.90;2.20;;;;;;;;;;5070213;28;20205;-54
2023/07/01 07:37:11;;;;;;;3.97;2.20;;;;;;;;;;5069597;28;20611;-54
2023/07/01 07:39:37;;;;;;;4.03;2.50;;;;;;;;;;5069879;28;20197;-56
2023/07/01 07:42:04;;;;;;;5.43;2.30;;;;;;;;;;5069994;28;20206;-55
2023/07/01 07:44:31;;;;;;;5.07;2.67;;;;;;;;;;5069849;28;20292;-55
2023/07/01 07:46:57;;;;;;;3.13;2.27;;;;;;;;;;5069991;28;20304;-52
2023/07/01 07:49:23;;;;;;;3.10;2.10;;;;;;;;;;5069615;28;20232;-52
2023/07/01 07:51:49;;;;;;;4.53;2.50;;;;;;;;;;5069943;28;20545;-53
2023/07/01 07:54:15;;;;;;;4.77;2.20;;;;;;;;;;5069838;28;20767;-55
2023/07/01 07:56:41;;;;;;;4.90;2.20;;;;;;;;;;5069861;28;20196;-53
2023/07/01 07:59:07;;;;;;;3.80;2.63;;;;;;;;;;5070067;28;21194;-53
2023/07/01 08:01:35;;;;;;;2.60;2.20;;;;;;;;;;5069849;28;20210;-54
2023/07/01 08:04:01;;;;;;;3.27;2.20;;;;;;;;;;5070129;28;20204;-55
2023/07/01 08:06:27;;;;;;;3.30;2.50;;;;;;;;;;5069900;28;20692;-54
2023/07/01 08:08:53;;;;;;;3.23;2.27;;;;;;;;;;5069796;28;20303;-55
2023/07/01 08:11:19;;;;;;;4.13;2.30;;;;;;;;;;5069918;28;20193;-54
2023/07/01 08:13:45;;;;;;;4.63;2.50;;;;;;;;;;5069611;28;20245;-54
2023/07/01 08:16:14;;;;;;;5.13;2.10;;;;;;;;;;5069836;28;20209;-54
2023/07/01 08:18:42;;;;;;;3.57;2.30;;;;;;;;;;5069839;28;20224;-54
2023/07/01 08:21:08;;;;;;;3.83;2.10;;;;;;;;;;5067794;28;20209;-54
2023/07/01 08:23:34;;;;;;;2.73;2.10;;;;;;;;;;5069302;28;20199;-54
2023/07/01 08:26:00;;;;;;;2.97;2.30;;;;;;;;;;5068962;28;20599;-54
2023/07/01 08:28:31;;;;;;;3.83;2.10;;;;;;;;;;5069423;28;20197;-54
2023/07/01 08:30:57;;;;;;;4.77;2.53;;;;;;;;;;5069214;28;20217;-54
2023/07/01 08:33:23;;;;;;;2.83;2.20;;;;;;;;;;5069041;28;20332;-54
2023/07/01 08:35:50;;;;;;;3.90;2.30;;;;;;;;;;5069259;28;20213;-54
2023/07/01 08:38:16;;;;;;;4.07;2.00;;;;;;;;;;5069100;28;20208;-54
2023/07/01 08:40:42;;;;;;;2.83;2.07;;;;;;;;;;5069242;28;20195;-54
2023/07/01 08:43:11;;;;;;;4.30;2.37;;;;;;;;;;5069032;28;20195;-54
2023/07/01 08:45:38;;;;;;;4.47;2.17;;;;;;;;;;5068813;28;20197;-54
2023/07/01 08:48:06;;;;;;;3.03;2.10;;;;;;;;;;5069000;28;20206;-54
2023/07/01 08:50:37;;;;;;;3.83;2.50;;;;;;;;;;5071812;28;20197;-54
2023/07/01 08:53:07;;;;;;;5.40;2.07;;;;;;;;;;5072782;28;20288;-54
2023/07/01 08:55:33;;;;;;;3.80;2.50;;;;;;;;;;5072383;28;20664;-54
2023/07/01 08:58:00;;;;;;;3.30;2.10;;;;;;;;;;5072600;28;20218;-55
2023/07/01 09:00:26;;;;;;;4.33;2.40;;;;;;;;;;5072294;28;20506;-53
2023/07/01 09:02:52;;;;;;;3.87;2.53;;;;;;;;;;5072217;28;20604;-55
2023/07/01 09:05:18;;;;;;;3.73;2.47;;;;;;;;;;5072330;28;20261;-53
2023/07/01 09:07:44;;;;;;;3.67;2.00;;;;;;;;;;5072322;28;20203;-53
2023/07/01 09:10:13;;;;;;;8.17;2.40;;;;;;;;;;5072251;28;20236;-53
2023/07/01 09:12:39;;;;;;;3.73;2.27;;;;;;;;;;5071906;28;20663;-53
2023/07/01 09:15:06;;;;;;;3.87;2.00;;;;;;;;;;5072241;28;20256;-55
2023/07/01 09:17:32;;;;;;;5.73;2.40;;;;;;;;;;5071986;28;20198;-54
2023/07/01 09:19:59;;;;;;;3.87;2.27;;;;;;;;;;5072080;28;20851;-55
2023/07/01 09:22:25;;;;;;;4.27;2.37;;;;;;;;;;5072081;28;20222;-55
2023/07/01 09:24:51;;;;;;;6.50;2.77;;;;;;;;;;5072413;28;20314;-55
2023/07/01 09:27:19;;;;;;;3.00;2.10;;;;;;;;;;5072662;28;20237;-54
2023/07/01 09:29:45;;;;;;;3.40;2.40;;;;;;;;;;5072303;28;20208;-55
2023/07/01 09:32:11;;;;;;;6.53;2.00;;;;;;;;;;5072526;28;20209;-55
2023/07/01 09:34:52;;;;;;;4.00;2.50;;;;;;;;;;5072280;28;20297;-54
2023/07/01 09:37:18;;;;;;;2.80;2.10;;;;;;;;;;5071085;28;20664;-55
2023/07/01 09:39:45;;;;;;;3.90;2.10;;;;;;;;;;5072217;28;20216;-54
2023/07/01 09:42:12;;;;;;;5.37;2.70;;;;;;;;;;5072273;28;20732;-55
2023/07/01 09:44:40;;;;;;;4.07;2.47;;;;;;;;;;5072055;28;20274;-55
2023/07/01 09:47:07;;;;;;;7.77;2.57;;;;;;;;;;5072206;28;20214;-55
2023/07/01 09:49:38;;;;;;;4.00;2.50;;;;;;;;;;5071829;28;20238;-55
2023/07/01 09:52:06;;;;;;;4.63;2.73;;;;;;;;;;5072228;28;20199;-55
2023/07/01 09:54:32;;;;;;;3.30;2.70;;;;;;;;;;5071739;28;20223;-55
2023/07/01 09:57:00;;;;;;;6.93;2.70;;;;;;;;;;5071825;28;20202;-55
2023/07/01 09:59:26;;;;;;;3.87;2.43;;;;;;;;;;5071768;28;20198;-55
2023/07/01 10:01:57;;;;;;;6.33;2.87;;;;;;;;;;5068911;28;20237;-54
2023/07/01 10:04:25;;;;;;;4.93;2.60;;;;;;;;;;5071071;28;20234;-55
2023/07/01 10:06:52;;;;;;;7.60;2.60;;;;;;;;;;5071394;28;20234;-55
2023/07/01 10:09:18;;;;;;;2.87;2.40;;;;;;;;;;5071255;28;20566;-54
2023/07/01 10:11:44;;;;;;;5.90;2.70;;;;;;;;;;5071327;28;20206;-54
2023/07/01 10:14:10;;;;;;;3.67;2.67;;;;;;;;;;5070734;28;20219;-55
2023/07/01 10:16:45;;;;;;;5.50;2.70;;;;;;;;;;5071072;28;20222;-54
2023/07/01 10:19:27;;;;;;;4.97;2.70;;;;;;;;;;5071168;28;20190;-55
2023/07/01 10:21:53;;;;;;;2.80;2.10;;;;;;;;;;5070777;28;20911;-54
2023/07/01 10:24:33;;;;;;;3.77;2.50;;;;;;;;;;5070865;28;20195;-55
2023/07/01 10:26:59;;;;;;;3.90;2.43;;;;;;;;;;5070651;28;20230;-54
2023/07/01 10:29:54;;;;;;;7.43;2.30;;;;;;;;;;5070726;28;20305;-55
2023/07/01 10:32:29;;;;;;;4.43;2.80;;;;;;;;;;5070692;28;20206;-54
2023/07/01 10:35:14;;;;;;;4.17;2.70;;;;;;;;;;5070720;28;20332;-54
2023/07/01 10:37:40;;;;;;;2.80;2.30;;;;;;;;;;5070658;28;20567;-54
2023/07/01 10:40:21;;;;;;;6.60;2.80;;;;;;;;;;5070712;28;20211;-53
2023/07/01 10:42:47;;;;;;;3.43;2.40;;;;;;;;;;5070309;28;20199;-54
2023/07/01 10:45:37;;;;;;;8.77;2.60;;;;;;;;;;5070551;28;20274;-54
2023/07/01 10:48:13;;;;;;;2.47;2.10;;;;;;;;;;5055207;28;20206;-54
2023/07/01 10:50:54;;;;;;;3.70;2.37;;;;;;;;;;5070478;28;20293;-53
2023/07/01 10:53:22;;;;;;;3.77;2.63;;;;;;;;;;5069972;28;20589;-54
2023/07/01 10:55:48;;;;;;;4.93;2.70;;;;;;;;;;5068694;28;20198;-53
2023/07/01 10:58:18;;;;;;;4.07;2.70;;;;;;;;;;5070672;28;20539;-54
2023/07/01 11:00:45;;;;;;;7.07;2.80;;;;;;;;;;5070656;28;20226;-53
2023/07/01 11:03:26;;;;;;;3.00;2.70;;;;;;;;;;5070814;28;20209;-54
2023/07/01 11:05:58;;;;;;;3.63;2.90;;;;;;;;;;5070306;28;20218;-53
2023/07/01 11:08:25;;;;;;;6.43;3.00;;;;;;;;;;5070498;28;20206;-55
2023/07/01 11:10:51;;;;;;;4.00;2.73;;;;;;;;;;5070646;28;20208;-55
2023/07/01 11:13:18;;;;;;;4.73;2.60;;;;;;;;;;5069895;28;20316;-54
2023/07/01 11:15:57;;;;;;;4.87;3.00;;;;;;;;;;5070548;28;20205;-54
2023/07/01 11:18:23;;;;;;;4.40;3.17;;;;;;;;;;5070525;28;20190;-54
2023/07/01 11:20:49;;;;;;;3.87;3.07;;;;;;;;;;5070336;28;20205;-54
2023/07/01 11:23:15;;;;;;;4.63;3.27;;;;;;;;;;5070249;28;20660;-54
2023/07/01 11:25:43;;;;;;;5.60;2.80;;;;;;;;;;5070357;28;20202;-54
2023/07/01 11:28:09;;;;;;;7.13;2.87;;;;;;;;;;5070439;28;20207;-54
2023/07/01 11:30:35;;;;;;;3.90;2.63;;;;;;;;;;5070239;28;20194;-52
2023/07/01 11:33:11;;;;;;;3.67;3.10;;;;;;;;;;5070295;28;20241;-52
2023/07/01 11:35:50;;;;;;;5.30;3.43;;;;;;;;;;5068951;28;20201;-52
2023/07/01 11:38:29;;;;;;;5.50;2.80;;;;;;;;;;5070274;28;20204;-50
2023/07/01 11:40:57;;;;;;;4.43;3.30;;;;;;;;;;5067983;28;20206;-52
2023/07/01 11:43:23;;;;;;;5.57;3.00;;;;;;;;;;5069736;28;20590;-51
2023/07/01 11:45:50;;;;;;;4.93;2.77;;;;;;;;;;5069759;28;20210;-49
2023/07/01 11:48:16;;;;;;;4.87;2.57;;;;;;;;;;5069683;28;20191;-51
2023/07/01 11:50:50;;;;;;;4.20;2.93;;;;;;;;;;5069731;28;20198;-51
2023/07/01 11:53:16;;;;;;;6.73;3.07;;;;;;;;;;5069466;28;20245;-50
2023/07/01 11:55:42;;;;;;;3.33;2.50;;;;;;;;;;5069839;28;20197;-50
2023/07/01 11:58:23;;;;;;;3.03;2.60;;;;;;;;;;5069463;28;20718;-51
2023/07/01 12:00:50;;;;;;;3.57;2.87;;;;;;;;;;5069772;28;20213;-49
2023/07/01 12:03:16;;;;;;;2.87;2.60;;;;;;;;;;5069461;28;20197;-50
2023/07/01 12:05:43;;;;;;;3.70;2.73;;;;;;;;;;5069483;28;20677;-50
2023/07/01 12:08:09;;;;;;;4.00;3.10;;;;;;;;;;5069448;28;20229;-51
2023/07/01 12:10:36;;;;;;;3.77;3.10;;;;;;;;;;5069499;28;20478;-50
2023/07/01 12:13:02;;;;;;;5.37;3.10;;;;;;;;;;5069286;28;20320;-50
2023/07/01 12:15:28;;;;;;;3.17;2.87;;;;;;;;;;5069645;28;20202;-51
2023/07/01 12:18:16;;;;;;;3.23;2.93;;;;;;;;;;5069011;28;20208;-49
2023/07/01 12:20:42;;;;;;;4.23;3.47;;;;;;;;;;5069253;28;20205;-49
2023/07/01 12:23:08;;;;;;;3.70;3.10;;;;;;;;;;5070164;28;20847;-51
2023/07/01 12:25:34;;;;;;;3.23;2.90;;;;;;;;;;5073529;28;20189;-50
2023/07/01 12:28:00;;;;;;;4.93;3.13;;;;;;;;;;5073191;28;20296;-51
2023/07/01 12:30:26;;;;;;;3.90;3.13;;;;;;;;;;5073154;28;20211;-51
2023/07/01 12:32:52;;;;;;;4.00;3.20;;;;;;;;;;5072964;28;20747;-52
2023/07/01 12:35:19;;;;;;;5.23;2.90;;;;;;;;;;5073147;28;20247;-51
2023/07/01 12:37:45;;;;;;;5.37;3.27;;;;;;;;;;5072954;28;20205;-51
2023/07/01 12:40:12;;;;;;;2.80;2.60;;;;;;;;;;5072827;28;20721;-51
2023/07/01 12:42:38;;;;;;;4.50;3.00;;;;;;;;;;5073003;28;20208;-51
2023/07/01 12:45:06;;;;;;;3.67;2.67;;;;;;;;;;5072730;28;20197;-51
2023/07/01 12:47:32;;;;;;;3.83;2.77;;;;;;;;;;5072902;28;20266;-51
2023/07/01 12:49:58;;;;;;;4.40;2.77;;;;;;;;;;5073061;28;20203;-49
2023/07/01 12:52:25;;;;;;;5.03;3.53;;;;;;;;;;5072381;28;20277;-49
2023/07/01 12:54:52;;;;;;;5.20;3.70;;;;;;;;;;5072537;28;20231;-49
2023/07/01 12:57:19;;;;;;;3.70;3.20;;;;;;;;;;5072729;28;20235;-51
2023/07/01 12:59:45;;;;;;;4.30;3.17;;;;;;;;;;5072428;28;20292;-50
2023/07/01 13:02:12;;;;;;;4.50;3.10;;;;;;;;;;5072543;28;20207;-50
2023/07/01 13:04:39;;;;;;;3.80;3.10;;;;;;;;;;5072244;28;20212;-50
2023/07/01 13:07:05;;;;;;;5.50;2.80;;;;;;;;;;5072557;28;20249;-49
2023/07/01 13:09:41;;;;;;;3.57;2.70;;;;;;;;;;5072483;28;20617;-50
2023/07/01 13:12:07;;;;;;;5.13;2.70;;;;;;;;;;5072537;28;20203;-50
2023/07/01 13:14:34;;;;;;;3.33;2.60;;;;;;;;;;5072116;28;20255;-50
2023/07/01 13:17:00;;;;;;;2.90;2.70;;;;;;;;;;5072242;28;20205;-50
2023/07/01 13:19:27;;;;;;;3.73;2.53;;;;;;;;;;5072310;28;20682;-51
2023/07/01 13:21:53;;;;;;;3.07;2.60;;;;;;;;;;5072190;28;20200;-50
2023/07/01 13:24:19;;;;;;;3.60;2.40;;;;;;;;;;5072190;28;20202;-50
2023/07/01 13:26:47;;;;;;;3.17;2.43;;;;;;;;;;5071839;28;20323;-50
2023/07/01 13:29:14;;;;;;;2.73;2.53;;;;;;;;;;5071944;28;20200;-50
2023/07/01 13:31:40;;;;;;;2.80;2.60;;;;;;;;;;5071900;28;20204;-50
2023/07/01 13:34:06;;;;;;;2.63;2.43;;;;;;;;;;5071772;28;20228;-50
2023/07/01 13:36:34;;;;;;;3.50;3.20;;;;;;;;;;5071178;28;20227;-50
2023/07/01 13:39:00;;;;;;;3.10;2.90;;;;;;;;;;5071952;28;20272;-50
2023/07/01 13:41:26;;;;;;;3.20;2.90;;;;;;;;;;5071821;28;20665;-51
2023/07/01 13:44:12;;;;;;;4.60;3.00;;;;;;;;;;5071822;28;20278;-51
2023/07/01 13:46:38;;;;;;;3.40;3.10;;;;;;;;;;5071695;28;20287;-51
2023/07/01 13:49:05;;;;;;;2.80;2.60;;;;;;;;;;5072066;28;20773;-50
2023/07/01 13:51:32;;;;;;;3.40;3.03;;;;;;;;;;5071668;28;20203;-50
2023/07/01 13:53:59;;;;;;;4.47;3.00;;;;;;;;;;5071526;28;20235;-51
2023/07/01 13:56:25;;;;;;;2.87;2.50;;;;;;;;;;5071450;28;20200;-51
2023/07/01 13:58:51;;;;;;;3.43;3.13;;;;;;;;;;5071275;28;20536;-51
2023/07/01 14:01:19;;;;;;;3.37;3.10;;;;;;;;;;5071600;28;20253;-50
2023/07/01 14:03:46;;;;;;;4.03;2.90;;;;;;;;;;5071327;28;20658;-51
2023/07/01 14:06:12;;;;;;;2.90;2.60;;;;;;;;;;5071472;28;20310;-50
2023/07/01 14:08:38;;;;;;;3.57;2.60;;;;;;;;;;5071249;28;20278;-51
2023/07/01 14:11:04;;;;;;;3.30;3.10;;;;;;;;;;5071206;28;20275;-51
2023/07/01 14:13:30;;;;;;;3.27;2.97;;;;;;;;;;5071108;28;20220;-50
2023/07/01 14:15:56;;;;;;;4.17;3.77;;;;;;;;;;5070948;28;20699;-48
2023/07/01 14:18:26;;;;;;;3.47;3.17;;;;;;;;;;5071121;28;20188;-50
2023/07/01 14:20:53;;;;;;;3.30;3.00;;;;;;;;;;5071092;28;20302;-50
2023/07/01 14:23:20;;;;;;;3.30;3.00;;;;;;;;;;5070763;28;20228;-51
2023/07/01 14:25:46;;;;;;;3.20;2.90;;;;;;;;;;5070871;28;20295;-51
2023/07/01 14:28:13;;;;;;;2.90;2.70;;;;;;;;;;5070956;28;20636;-50
2023/07/01 14:30:58;;;;;;;3.57;3.17;;;;;;;;;;5070597;28;20238;-50
2023/07/01 14:33:31;;;;;;;4.07;2.60;;;;;;;;;;5070614;28;20224;-51
2023/07/01 14:35:57;;;;;;;4.47;3.10;;;;;;;;;;5070839;28;20246;-51
2023/07/01 14:38:24;;;;;;;2.97;2.60;;;;;;;;;;5070678;28;20209;-51
2023/07/01 14:40:50;;;;;;;3.17;2.80;;;;;;;;;;5070443;28;20200;-51
2023/07/01 14:43:17;;;;;;;3.77;2.70;;;;;;;;;;5070516;28;20204;-52